메인 페이지
METAR-TAF:

METAR-TAF

공항 :

Adirondack Regional Airport

Saranac Lake, 뉴욕, 미국

위도: 44-23-35N, 경도: 074-12-10W, 고도: 507m

현재 날씨관측

예보는 47분 전, 18:51시(UTC)에 발표되었습니다.
여러 방향의 바람 5kt
온도 -2°C
습도 86%
기압 1013 hPa
시정: 16.1km
고도 900ft 상공 흐림

METAR: KSLK 231851Z AUTO VRB05KT 10SM OVC009 M02/M04 A2991 RMK AO2 SLP145 T10221039

시각: 14:38 (19:38 UTC)

예보

예보는 2 시간 18분 전, 17:20시(UTC)에 발표되었습니다.
예보 대상 시간: 23일 18시부터 24일 18시까지 (UTC)
10kt, 순간 최대 풍속 18kt
시정: 10km
고도 800ft 상공 흐림
23일 2100시부터 (UTC)
9kt
시정: 10km
고도 1500ft 상공 구름 보통
고도 2200ft 상공 구름 많음
24일 0200시부터 (UTC)
서남서7kt
시정: 6.4km
고도 1500ft 상공 흐림
약한소낙눈, 박무
24일 0600시부터 (UTC)
8kt
시정: 10km
고도 2100ft 상공 구름 많음
24일 1400시부터 (UTC)
북서8kt
시정: 10km
고도 3500ft 상공 구름 보통

TAF: KSLK 231720Z 2318/2418 26010G18KT P6SM OVC008 FM232100 27009KT P6SM SCT015 BKN022 FM240200 25007KT 4SM -SHSN BR OVC015 FM240600 27008KT P6SM BKN021 FM241400 31008KT P6SM SCT035

4,000개 이상의 공항 관측 자료 및 예보 (METAR 및 TAF 보고).

지도상에서 검색 가능한 기상관측소가 노란 점과 빨간 점으로 표시되어 있습니다.

기상관측소 명을 보려면 표시 위로 마우스를 이동하세요.

날씨 관측과 예보를 보려면 클릭하세요.

지도 변경 : 확대하려면 엑스 표시가 있는 녹색 버튼, 축소하려면 빼기 표시가 있는 녹색 버튼, 다음 페이지의 지도를 보려면 녹색 화살표를 클릭하세요.


METAR-TAF: